Aktualne dane pomiarowe

Uwaga, wersja testowa! Automatyczne pobieranie danych za pomocą narzędzi lub skryptów to umożliwiających jest zabronione.

Dane meteo z obszaru Polski uzyskane na podstawie depesz SYNOP pobieranych co godzinę z NWS. Najedź myszką na symbol przedstawiony w tabeli, aby uzyskać informacje co do jego znaczenia. Prosimy pamiętać, że to testowa wersja strony, która jeszcze nie jest ukończona. Stworzono również jest krótki FAQ dotyczący korzystania z tej podstrony Anomalie temperatury w chwili obecnej odniesione są do okresu referencyjnego 1951-2016. Okres ten będzie później zmieniony na 1981-2010. Kliknij ikonę aby pobrać plik CSV. Kliknij ikonę aby wygenerować mapę synoptyczną dla danego terminu.

Wybierz Datę:    

        

Kraków-Balice (12566)

Dane terminowe dla wybranej stacji. Kliknij datę, aby otrzymać dane z tego terminu dla wszystkich stacji.

TemperaturaZachmurzenieWiatrCiśnienieOpadyPogoda
 Data t td wb tx tn tg rh  Nt Nl Cl Cm Ch ws wd g1 g2 wx mslp ppp ch 24h 12h t ww ww w1 w2  
2019-06-17 23:00:00 14.8 12.8 13.4--- 8835.0wxwxwxwx2wx--21021.0 992.2 0.2---------
2019-06-17 22:00:00 15.2 12.9 13.6--- 8640.0wx-wx2wx--21021.0 992.2 0.6---------
2019-06-17 21:00:00 16.6 12.9 14.1--- 7940.0wx-wx0---01020.6 992.0 0.6---------
2019-06-17 20:00:00 17.7 13.2 14.7--- 7540.0wx-wx1wx--11020.5 992.0 0.8---------
2019-06-17 19:00:00 20.2 12.7 15.5--- 6240.0wx-wx2wx---1019.9 991.6 0.0---------
2019-06-17 18:00:00 21.3 13.0 16.1 24.0 17.7- 5940.0wx-wx3wx--31019.6 991.4 -0.5- 0.012------
2019-06-17 17:00:00 23.3 12.6 16.7--- 5150.0wxwxwxwx2wx--21019.2 991.2 -1.3---------
2019-06-17 16:00:00 23.5 12.5 16.7--- 5050.0wxwxwxwx3wx--31019.6 991.6 -1.3---------
2019-06-17 15:00:00 23.5 12.8 16.9--- 5150.0wxwxwxwx1wx--11019.9 991.9 -1.4---------
2019-06-17 14:00:00 23.2 11.9 16.3--- 4950.0wxwxwxwx2wx--21020.5 992.5 -1.3---------
2019-06-17 13:00:00 22.7 11.4 15.9--- 4950.0wxwxwxwxwx3wx--31021.0 992.9 -1.1---------
2019-06-17 12:00:00 22.2 10.7 15.3--- 4850.0wxwxwxwxwx3wx--31021.4 993.3 -0.7- 0.06------
2019-06-17 11:00:00 21.6 10.7 15.1--- 5050.0wxwxwxwxwx3wx--31022.0 993.8 0.2---------
2019-06-17 10:00:00 20.2 10.6 14.4--- 5450.0wxwxwxwxwx2wx--21022.3 994.0 0.5---------
2019-06-17 09:00:00 19.4 11.2 14.4--- 5950.0wxwxwxwx3wx--31022.4 994.0 0.8---------
2019-06-17 08:00:00 19.0 11.6 14.4--- 6250.0wxwxwxwx3wx--31022.1 993.6 1.1---------
2019-06-17 07:00:00 18.0 13.1 14.8--- 7350.0wxwxwx1wx--11022.0 993.5 1.2---------
2019-06-17 06:00:00 17.8 13.3 14.8 21.7 17.7 17 7550.0wxwxwx3wx--31021.8 993.2 1.2 0.6-12wx-w1--
2019-06-17 05:00:00 17.7 14.0 15.2--- 7940.0wxwxwx2wx--21021.0 992.5 0.9---------
2019-06-17 04:00:00 18.0 13.9 15.2--- 7730.0wxwxwx2wx--21020.8 992.3 1.1---wx---
2019-06-17 03:00:00 18.1 13.8 15.2--- 7640.0wxwxwx2wx--21020.5 992.0 0.8---------
2019-06-17 02:00:00 18.5 14.8 16.0--- 7940.0wxwxwx3wx--31020.0 991.6 0.8---------
2019-06-17 01:00:00 19.1 14.4 16.0--- 7440.0wxwxwxwx5wx--51019.6 991.2 0.5---------
2019-06-17 00:00:00 19.7 14.9 16.5--- 7430.0wxwxwx4wx--41019.5 991.2 0.4- 0.06------
2019-06-16 23:00:00 20.2 16.2 17.4--- 7820.0wxwxwx3wx--31019.1 990.8 0.3---------
2019-06-16 22:00:00 19.5 16.9 17.7--- 8520.0wxwxwxwx1wx--11019.0 990.7 1.4---------
2019-06-16 21:00:00 19.5 16.7 17.5--- 8420.0wx-wx2wx--21019.1 990.8 1.1---------
2019-06-16 20:00:00 20.5 17.3 18.2--- 8220.0wx-wx0---01018.7 990.5 0.9---------
2019-06-16 19:00:00 20.8 17.0 18.2--- 7920.0wx-wxwx2wx--21017.5 989.3 0.6---------
2019-06-16 18:00:00 21.7 17.5 18.8 29.5 21.2- 7720.0wxwxwxwx2wx--21017.8 989.7 1.3- 0.612wx-w1w2--
2019-06-16 17:00:00 21.9 18.5 19.5--- 8120.0wxwxwxwx2wx--21017.7 989.6 0.7---------
2019-06-16 16:00:00 22.1 18.9 19.8--- 8220.0wxwxwxwx2wx--21016.7 988.7 1.4---------
2019-06-16 15:00:00 21.3 18.5 19.3--- 8420.0wxwxwxwx5wx--51016.5 988.4 1.6---wx---
2019-06-16 14:00:00 22.3 17.9 19.2--- 7620.0wxwxwxwx6wx--61016.9 988.9 1.6---wx---
2019-06-16 13:00:00 26.5 17.8 20.7--- 5940.0wxwxwxwxwx5wx--51014.9 987.3 -0.2---------
2019-06-16 12:00:00 28.7 15.2 20.1--- 4440.0wxwxwxwx4wx--41014.1 986.8 -0.5- 0.06------
2019-06-16 11:00:00 28.9 15.1 20.1--- 4340.0wxwxwxwxwx3wx--31014.6 987.3 0.0---------
2019-06-16 10:00:00 27.5 16.1 20.1--- 5040.0wxwxwxwx3wx---1015.0 987.5 0.0---------
2019-06-16 09:00:00 26.4 15.7 19.5--- 5240.0wx-wx2wx--21014.9 987.3 0.2---------
2019-06-16 08:00:00 25.1 15.7 19.0--- 5640.0wx-wx2wx--21015.0 987.3 0.5---------
2019-06-16 07:00:00 24.5 15.4 18.6--- 5740.0wx-wxwx2wx--21015.2 987.5 1.0---------
2019-06-16 06:00:00 22.9 15.5 18.0 29.9 17.3 17 6340.0wx-wx3wx--31015.0 987.1 0.8- 0.012------
2019-06-16 05:00:00 20.9 15.7 17.4--- 7240.0wx-wx2wx--21014.9 986.8 0.5---------
2019-06-16 04:00:00 18.5 15.7 16.5--- 8430.0wx-wx1wx--11014.8 986.5 0.6---------
2019-06-16 03:00:00 18.8 14.9 16.1--- 7840.0wx-wx2wx--21014.6 986.3 0.9---------
2019-06-16 02:00:00 18.0 15.1 16.0--- 8330.0wx-wx4wx--41014.6 986.3 1.3---------
2019-06-16 01:00:00 20.3 15.5 17.1--- 7440.0wx-wx3wx--31014.0 985.9 1.4---------
2019-06-16 00:00:00 21.6 15.2 17.4--- 6740.0wx-wx3wx--31013.4 985.4 1.4- 0.06------
3.7 ms

 

Print Friendly, PDF & Email